Station Historical Data
Daily Summary for May 6, 2017 Units:  English    Metric   Both
« Previous Day
Next Day »
Daily Weekly Monthly Yearly Custom
  High: Low: Average:
Temperature: 46.6 °F 40.3 °F 43.6 °F
Dew Point: 45.2 °F 38.4 °F 41.7 °F
Humidity: 95% 90% 93%
Wind Speed: 11.0mph 0.0mph 4.1mph
Wind Gust: 14.0mph - -
Wind- - WNW
Pressure: 29.52 in 29.34 in -
Precipitation: 0.00 in    
Historical Graphs
 
 
Tabular Data for May 6, 2017
Time Temperature Dew Point Pressure Wind Wind Speed Wind Gust Humidity Rainfall Rate (Hourly)
00:04 46.5 °F 45.1 °F 29.42 in NW 2.0 mph 7.0 mph 95% 0.04 in
00:09 46.6 °F 45.2 °F 29.42 in NNW 2.0 mph 5.0 mph 95% 0.04 in
00:14 46.6 °F 45.2 °F 29.42 in NNW 2.0 mph 4.0 mph 95% 0.05 in
00:19 46.5 °F 45.1 °F 29.41 in NNW 2.0 mph 7.0 mph 95% 0.05 in
00:24 46.6 °F 45.2 °F 29.41 in NNW 2.0 mph 7.0 mph 95% 0.05 in
00:29 46.5 °F 45.1 °F 29.40 in NNW 2.0 mph 4.0 mph 95% 0.05 in
00:34 46.5 °F 45.1 °F 29.39 in NNW 7.0 mph 10.0 mph 95% 0.05 in
00:39 46.5 °F 45.1 °F 29.39 in North 4.0 mph 12.0 mph 95% 0.05 in
00:44 46.4 °F 45.0 °F 29.39 in NNE 2.0 mph 9.0 mph 95% 0.06 in
00:49 46.3 °F 44.9 °F 29.39 in NE 4.0 mph 7.0 mph 95% 0.07 in
00:54 46.3 °F 44.9 °F 29.38 in NE 3.0 mph 7.0 mph 95% 0.07 in
00:59 46.3 °F 44.9 °F 29.38 in NNE 2.0 mph 4.0 mph 95% 0.08 in
01:04 46.3 °F 44.9 °F 29.38 in NNE 3.0 mph 6.0 mph 95% 0.08 in
01:09 46.2 °F 44.8 °F 29.38 in NNE 4.0 mph 8.0 mph 95% 0.09 in
01:14 46.2 °F 44.8 °F 29.36 in NNE 4.0 mph 8.0 mph 95% 0.08 in
01:19 46.1 °F 44.7 °F 29.37 in North 4.0 mph 11.0 mph 95% 0.09 in
01:24 46.1 °F 44.7 °F 29.37 in NW 3.0 mph 7.0 mph 95% 0.08 in
01:29 46.0 °F 44.6 °F 29.36 in NNE 2.0 mph 7.0 mph 95% 0.07 in
01:34 46.0 °F 44.6 °F 29.36 in North 3.0 mph 10.0 mph 95% 0.06 in
01:39 45.9 °F 44.5 °F 29.36 in North 3.0 mph 10.0 mph 95% 0.05 in
01:44 46.0 °F 44.6 °F 29.37 in NNW 2.0 mph 7.0 mph 95% 0.04 in
01:49 46.0 °F 44.6 °F 29.39 in West 3.0 mph 7.0 mph 95% 0.03 in
01:54 46.0 °F 44.6 °F 29.39 in West 3.0 mph 7.0 mph 95% 0.03 in
01:59 46.0 °F 44.6 °F 29.39 in West 4.0 mph 8.0 mph 95% 0.02 in
02:04 46.0 °F 44.6 °F 29.38 in WNW 3.0 mph 8.0 mph 95% 0.02 in
02:09 45.9 °F 44.5 °F 29.38 in West 5.0 mph 9.0 mph 95% 0.01 in
02:14 45.8 °F 44.4 °F 29.38 in West 2.0 mph 6.0 mph 95% 0.01 in
02:19 45.7 °F 44.4 °F 29.39 in North 2.0 mph 7.0 mph 95% 0.00 in
02:24 45.7 °F 44.4 °F 29.40 in WNW 3.0 mph 5.0 mph 95% 0.01 in
02:29 45.7 °F 44.4 °F 29.39 in WNW 3.0 mph 6.0 mph 95% 0.01 in
02:34 45.7 °F 44.4 °F 29.39 in NW 3.0 mph 6.0 mph 95% 0.01 in
02:39 45.7 °F 44.4 °F 29.39 in NW 2.0 mph 6.0 mph 95% 0.01 in
02:44 45.6 °F 44.3 °F 29.39 in WNW 2.0 mph 7.0 mph 95% 0.01 in
02:49 45.6 °F 44.3 °F 29.38 in NNW 2.0 mph 7.0 mph 95% 0.01 in
02:54 45.6 °F 44.3 °F 29.38 in NW 3.0 mph 8.0 mph 95% 0.01 in
02:59 45.5 °F 44.2 °F 29.38 in NW 3.0 mph 7.0 mph 95% 0.01 in
03:04 45.4 °F 44.1 °F 29.37 in NNE 1.0 mph 6.0 mph 95% 0.01 in
03:09 45.2 °F 43.9 °F 29.37 in NNW 2.0 mph 9.0 mph 95% 0.01 in
03:14 45.2 °F 43.9 °F 29.36 in North 3.0 mph 7.0 mph 95% 0.01 in
03:19 45.2 °F 43.9 °F 29.35 in NNW 2.0 mph 9.0 mph 95% 0.01 in
03:24 45.0 °F 43.7 °F 29.34 in North 2.0 mph 8.0 mph 95% 0.00 in
03:29 44.9 °F 43.6 °F 29.34 in North 4.0 mph 8.0 mph 95% 0.00 in
03:34 44.8 °F 43.5 °F 29.34 in North 4.0 mph 9.0 mph 95% 0.00 in
03:39 44.7 °F 43.4 °F 29.34 in NNW 4.0 mph 10.0 mph 95% 0.00 in
03:44 44.7 °F 43.4 °F 29.34 in North 3.0 mph 10.0 mph 95% 0.00 in
03:49 44.6 °F 43.3 °F 29.34 in NNW 2.0 mph 6.0 mph 95% 0.00 in
03:54 44.6 °F 43.3 °F 29.35 in NW 2.0 mph 5.0 mph 95% 0.00 in
03:59 44.5 °F 43.2 °F 29.35 in NW 2.0 mph 5.0 mph 95% 0.00 in
04:04 44.5 °F 43.2 °F 29.34 in NW 2.0 mph 7.0 mph 95% 0.00 in
04:09 44.4 °F 43.1 °F 29.35 in NNW 2.0 mph 7.0 mph 95% 0.00 in
04:14 44.4 °F 43.1 °F 29.37 in WNW 1.0 mph 6.0 mph 95% 0.00 in
04:19 44.5 °F 43.2 °F 29.37 in WNW 3.0 mph 4.0 mph 95% 0.00 in
04:24 44.5 °F 43.2 °F 29.37 in Calm   7.0 mph 95% 0.00 in
04:29 44.5 °F 43.2 °F 29.37 in West 6.0 mph 7.0 mph 95% 0.00 in
04:34 44.4 °F 43.1 °F 29.38 in West 4.0 mph 7.0 mph 95% 0.00 in
04:39 44.5 °F 43.2 °F 29.38 in West 3.0 mph 7.0 mph 95% 0.00 in
04:44 44.4 °F 43.1 °F 29.38 in WNW 1.0 mph 6.0 mph 95% 0.00 in
04:49 44.4 °F 43.1 °F 29.38 in NW 2.0 mph 6.0 mph 95% 0.01 in
04:54 44.5 °F 43.2 °F 29.38 in NW 6.0 mph 6.0 mph 95% 0.01 in
04:59 44.4 °F 43.1 °F 29.37 in WNW 4.0 mph 5.0 mph 95% 0.01 in
05:04 44.4 °F 43.1 °F 29.37 in WNW 3.0 mph 6.0 mph 95% 0.02 in
05:09 44.4 °F 43.1 °F 29.38 in WNW 3.0 mph 6.0 mph 95% 0.02 in
05:14 44.4 °F 43.1 °F 29.38 in West 2.0 mph 6.0 mph 95% 0.02 in
05:19 44.5 °F 43.2 °F 29.37 in West 4.0 mph 4.0 mph 95% 0.02 in
05:24 44.3 °F 43.0 °F 29.37 in West 3.0 mph 6.0 mph 95% 0.02 in
05:29 44.3 °F 43.0 °F 29.37 in WNW 5.0 mph 7.0 mph 95% 0.03 in
05:34 44.1 °F 42.8 °F 29.36 in NNW 2.0 mph 9.0 mph 95% 0.03 in
05:39 43.9 °F 42.3 °F 29.36 in Calm   9.0 mph 94% 0.03 in
05:44 43.8 °F 42.2 °F 29.36 in West 6.0 mph 10.0 mph 94% 0.03 in
05:49 43.4 °F 42.1 °F 29.36 in West 5.0 mph 7.0 mph 95% 0.02 in
05:54 43.1 °F 41.5 °F 29.36 in NW 2.0 mph 8.0 mph 94% 0.02 in
05:59 42.9 °F 41.3 °F 29.37 in NW 2.0 mph 9.0 mph 94% 0.02 in
06:04 42.9 °F 41.6 °F 29.37 in NW 3.0 mph 10.0 mph 95% 0.01 in
06:09 42.8 °F 41.5 °F 29.38 in NW 4.0 mph 10.0 mph 95% 0.01 in
06:14 42.8 °F 41.2 °F 29.38 in NW 3.0 mph 10.0 mph 94% 0.01 in
06:19 42.8 °F 41.2 °F 29.38 in WNW 3.0 mph 7.0 mph 94% 0.01 in
06:24 42.8 °F 41.5 °F 29.37 in WNW 3.0 mph 8.0 mph 95% 0.01 in
06:29 42.8 °F 41.2 °F 29.38 in NW 3.0 mph 8.0 mph 94% 0.00 in
06:34 42.7 °F 41.1 °F 29.38 in WNW 3.0 mph 7.0 mph 94% 0.00 in
06:39 42.6 °F 41.0 °F 29.37 in WNW 1.0 mph 5.0 mph 94% 0.00 in
06:44 42.7 °F 41.1 °F 29.37 in West 7.0 mph 8.0 mph 94% 0.00 in
06:49 42.5 °F 40.9 °F 29.37 in WNW 5.0 mph 10.0 mph 94% 0.00 in
06:54 42.5 °F 41.2 °F 29.38 in WNW 4.0 mph 10.0 mph 95% 0.00 in
06:59 42.5 °F 41.2 °F 29.38 in NW 4.0 mph 10.0 mph 95% 0.00 in
07:04 42.6 °F 41.3 °F 29.38 in WNW 4.0 mph 10.0 mph 95% 0.00 in
07:09 42.5 °F 41.2 °F 29.39 in NW 4.0 mph 9.0 mph 95% 0.00 in
07:14 42.5 °F 41.2 °F 29.39 in NW 3.0 mph 9.0 mph 95% 0.00 in
07:19 42.5 °F 41.2 °F 29.39 in WNW 3.0 mph 10.0 mph 95% 0.00 in
07:24 42.5 °F 41.2 °F 29.39 in NW 4.0 mph 8.0 mph 95% 0.00 in
07:29 42.5 °F 41.2 °F 29.39 in NW 3.0 mph 6.0 mph 95% 0.00 in
07:34 42.5 °F 41.2 °F 29.40 in NW 3.0 mph 8.0 mph 95% 0.00 in
07:39 42.5 °F 41.2 °F 29.40 in NW 2.0 mph 8.0 mph 95% 0.00 in
07:44 42.7 °F 41.4 °F 29.40 in NW 3.0 mph 3.0 mph 95% 0.00 in
07:49 42.6 °F 41.3 °F 29.39 in NW 2.0 mph 9.0 mph 95% 0.00 in
07:54 42.5 °F 41.2 °F 29.39 in NW 4.0 mph 9.0 mph 95% 0.00 in
07:59 42.5 °F 41.2 °F 29.39 in NW 4.0 mph 7.0 mph 95% 0.00 in
08:04 42.5 °F 41.2 °F 29.38 in WNW 2.0 mph 6.0 mph 95% 0.00 in
08:09 42.7 °F 41.4 °F 29.38 in NW 2.0 mph 9.0 mph 95% 0.00 in
08:14 42.7 °F 41.4 °F 29.38 in West 6.0 mph 9.0 mph 95% 0.00 in
08:19 42.8 °F 41.5 °F 29.38 in WNW 6.0 mph 9.0 mph 95% 0.00 in
08:24 42.8 °F 41.2 °F 29.38 in West 9.0 mph 9.0 mph 94% 0.00 in
08:29 42.9 °F 41.6 °F 29.38 in North 3.0 mph 10.0 mph 95% 0.00 in
08:34 42.8 °F 41.5 °F 29.37 in NW 3.0 mph 10.0 mph 95% 0.00 in
08:39 42.8 °F 41.5 °F 29.37 in NW 3.0 mph 7.0 mph 95% 0.00 in
08:44 42.9 °F 41.6 °F 29.38 in WNW 4.0 mph 8.0 mph 95% 0.00 in
08:49 42.8 °F 41.5 °F 29.38 in WNW 4.0 mph 8.0 mph 95% 0.00 in
08:54 42.7 °F 41.1 °F 29.38 in NW 4.0 mph 8.0 mph 94% 0.00 in
08:59 42.6 °F 41.0 °F 29.38 in North 5.0 mph 8.0 mph 94% 0.00 in
09:04 42.7 °F 41.1 °F 29.39 in WNW 4.0 mph 8.0 mph 94% 0.00 in
09:09 42.7 °F 41.1 °F 29.39 in WNW 4.0 mph 8.0 mph 94% 0.00 in
09:14 42.7 °F 41.1 °F 29.39 in NW 3.0 mph 7.0 mph 94% 0.00 in
09:19 42.8 °F 41.2 °F 29.39 in NW 2.0 mph 8.0 mph 94% 0.00 in
09:24 42.9 °F 41.3 °F 29.39 in WNW 2.0 mph 8.0 mph 94% 0.00 in
09:29 43.1 °F 41.5 °F 29.39 in WNW 3.0 mph 7.0 mph 94% 0.00 in
09:34 43.2 °F 41.6 °F 29.38 in WNW 3.0 mph 9.0 mph 94% 0.00 in
09:39 43.1 °F 41.5 °F 29.38 in NW 2.0 mph 10.0 mph 94% 0.00 in
09:44 43.1 °F 41.5 °F 29.38 in WNW 6.0 mph 10.0 mph 94% 0.00 in
09:49 43.1 °F 41.5 °F 29.39 in WNW 5.0 mph 10.0 mph 94% 0.00 in
09:54 42.9 °F 41.0 °F 29.38 in WNW 2.0 mph 9.0 mph 93% 0.00 in
09:59 42.9 °F 41.0 °F 29.38 in WNW 5.0 mph 8.0 mph 93% 0.00 in
10:04 43.1 °F 41.5 °F 29.39 in WNW 4.0 mph 8.0 mph 94% 0.00 in
10:09 43.2 °F 41.6 °F 29.39 in WNW 2.0 mph 6.0 mph 94% 0.00 in
10:14 43.0 °F 41.1 °F 29.39 in WNW 3.0 mph 8.0 mph 93% 0.00 in
10:19 43.0 °F 41.1 °F 29.39 in NW 4.0 mph 8.0 mph 93% 0.00 in
10:24 42.9 °F 41.0 °F 29.39 in NW 4.0 mph 11.0 mph 93% 0.00 in
10:29 43.0 °F 41.1 °F 29.39 in NW 4.0 mph 11.0 mph 93% 0.00 in
10:34 43.4 °F 41.5 °F 29.39 in NNW 5.0 mph 5.0 mph 93% 0.00 in
10:39 43.2 °F 41.3 °F 29.39 in NNW 3.0 mph 9.0 mph 93% 0.00 in
10:44 43.4 °F 41.5 °F 29.39 in NNW 3.0 mph 5.0 mph 93% 0.00 in
10:49 43.3 °F 41.4 °F 29.39 in NW 2.0 mph 10.0 mph 93% 0.00 in
10:54 43.4 °F 41.5 °F 29.39 in West 1.0 mph 7.0 mph 93% 0.00 in
10:59 43.6 °F 41.4 °F 29.39 in West 2.0 mph 5.0 mph 92% 0.00 in
11:04 43.6 °F 41.4 °F 29.39 in WNW 5.0 mph 8.0 mph 92% 0.00 in
11:09 43.5 °F 41.3 °F 29.39 in WNW 4.0 mph 8.0 mph 92% 0.00 in
11:14 43.6 °F 41.4 °F 29.39 in WNW 4.0 mph 8.0 mph 92% 0.00 in
11:19 43.7 °F 41.5 °F 29.39 in WNW 4.0 mph 8.0 mph 92% 0.00 in
11:24 43.8 °F 41.6 °F 29.39 in WNW 4.0 mph 7.0 mph 92% 0.00 in
11:29 43.8 °F 41.6 °F 29.39 in WNW 4.0 mph 9.0 mph 92% 0.00 in
11:34 43.8 °F 41.6 °F 29.39 in WNW 4.0 mph 8.0 mph 92% 0.00 in
11:39 44.1 °F 41.9 °F 29.39 in NW 3.0 mph 6.0 mph 92% 0.00 in
11:44 44.1 °F 41.9 °F 29.39 in WNW 1.0 mph 8.0 mph 92% 0.00 in
11:49 43.9 °F 41.7 °F 29.39 in WNW 3.0 mph 8.0 mph 92% 0.00 in
11:54 43.8 °F 41.6 °F 29.39 in WNW 6.0 mph 8.0 mph 92% 0.00 in
11:59 43.9 °F 41.7 °F 29.39 in West 9.0 mph 11.0 mph 92% 0.00 in
12:04 43.7 °F 41.5 °F 29.39 in West 6.0 mph 9.0 mph 92% 0.00 in
12:09 43.8 °F 41.6 °F 29.39 in WNW 5.0 mph 11.0 mph 92% 0.00 in
12:14 43.7 °F 41.5 °F 29.39 in WNW 5.0 mph 10.0 mph 92% 0.00 in
12:19 43.8 °F 41.6 °F 29.39 in WNW 5.0 mph 10.0 mph 92% 0.00 in
12:24 43.9 °F 41.7 °F 29.39 in WNW 4.0 mph 9.0 mph 92% 0.00 in
12:29 44.0 °F 41.8 °F 29.39 in West 1.0 mph 8.0 mph 92% 0.00 in
12:34 44.1 °F 41.9 °F 29.39 in West 2.0 mph 6.0 mph 92% 0.00 in
12:39 44.1 °F 41.9 °F 29.39 in West 3.0 mph 7.0 mph 92% 0.00 in
12:44 44.3 °F 42.4 °F 29.39 in West 5.0 mph 5.0 mph 93% 0.00 in
12:49 44.0 °F 41.8 °F 29.39 in West 2.0 mph 7.0 mph 92% 0.00 in
12:54 44.0 °F 41.8 °F 29.39 in WNW 4.0 mph 6.0 mph 92% 0.01 in
12:59 43.8 °F 41.6 °F 29.39 in West 2.0 mph 8.0 mph 92% 0.01 in
13:04 43.6 °F 41.4 °F 29.39 in West 4.0 mph 8.0 mph 92% 0.01 in
13:09 43.5 °F 41.3 °F 29.39 in WNW 3.0 mph 8.0 mph 92% 0.01 in
13:14 43.6 °F 41.4 °F 29.39 in West 3.0 mph 8.0 mph 92% 0.01 in
13:19 43.7 °F 41.5 °F 29.39 in West 4.0 mph 8.0 mph 92% 0.01 in
13:24 43.9 °F 42.0 °F 29.39 in WNW 3.0 mph 6.0 mph 93% 0.02 in
13:29 44.0 °F 42.1 °F 29.39 in WNW 4.0 mph 9.0 mph 93% 0.02 in
13:34 44.0 °F 42.1 °F 29.39 in WNW 9.0 mph 11.0 mph 93% 0.03 in
13:39 43.8 °F 41.9 °F 29.39 in West 5.0 mph 11.0 mph 93% 0.03 in
13:44 43.9 °F 42.0 °F 29.39 in West 4.0 mph 9.0 mph 93% 0.03 in
13:49 43.9 °F 42.0 °F 29.39 in WNW 4.0 mph 7.0 mph 93% 0.03 in
13:54 43.8 °F 41.9 °F 29.39 in West 4.0 mph 10.0 mph 93% 0.02 in
13:59 43.8 °F 41.9 °F 29.39 in WNW 3.0 mph 9.0 mph 93% 0.02 in
14:04 43.9 °F 42.0 °F 29.39 in West 6.0 mph 7.0 mph 93% 0.02 in
14:09 43.9 °F 42.0 °F 29.40 in West 4.0 mph 7.0 mph 93% 0.02 in
14:14 44.1 °F 42.2 °F 29.40 in West 4.0 mph 8.0 mph 93% 0.03 in
14:19 44.3 °F 42.4 °F 29.39 in West 4.0 mph 8.0 mph 93% 0.03 in
14:24 44.2 °F 42.3 °F 29.40 in West 3.0 mph 7.0 mph 93% 0.02 in
14:29 44.2 °F 42.3 °F 29.39 in West 1.0 mph 8.0 mph 93% 0.02 in
14:34 44.3 °F 42.4 °F 29.39 in West 7.0 mph 11.0 mph 93% 0.01 in
14:39 44.1 °F 42.2 °F 29.40 in West 8.0 mph 12.0 mph 93% 0.01 in
14:44 44.1 °F 42.2 °F 29.40 in West 6.0 mph 12.0 mph 93% 0.01 in
14:49 44.3 °F 42.4 °F 29.40 in West 5.0 mph 9.0 mph 93% 0.01 in
14:54 44.6 °F 42.7 °F 29.40 in West 4.0 mph 9.0 mph 93% 0.01 in
14:59 44.5 °F 42.6 °F 29.40 in West 5.0 mph 10.0 mph 93% 0.01 in
15:04 44.8 °F 42.9 °F 29.40 in West 8.0 mph 9.0 mph 93% 0.01 in
15:09 44.9 °F 43.0 °F 29.40 in WSW 5.0 mph 10.0 mph 93% 0.01 in
15:14 45.1 °F 43.2 °F 29.40 in West 5.0 mph 11.0 mph 93% 0.00 in
15:19 45.1 °F 42.9 °F 29.40 in WNW 6.0 mph 10.0 mph 92% 0.00 in
15:24 44.9 °F 42.7 °F 29.40 in West 8.0 mph 12.0 mph 92% 0.00 in
15:29 44.9 °F 42.7 °F 29.40 in West 6.0 mph 14.0 mph 92% 0.00 in
15:34 45.0 °F 42.8 °F 29.40 in West 8.0 mph 12.0 mph 92% 0.00 in
15:39 45.2 °F 43.0 °F 29.40 in West 6.0 mph 9.0 mph 92% 0.00 in
15:44 45.5 °F 43.3 °F 29.41 in West 5.0 mph 9.0 mph 92% 0.00 in
15:49 45.3 °F 42.8 °F 29.40 in West 5.0 mph 14.0 mph 91% 0.00 in
15:54 45.2 °F 42.7 °F 29.41 in West 6.0 mph 14.0 mph 91% 0.00 in
15:59 44.9 °F 42.4 °F 29.41 in West 5.0 mph 12.0 mph 91% 0.00 in
16:04 44.7 °F 41.9 °F 29.41 in West 5.0 mph 12.0 mph 90% 0.00 in
16:09 44.7 °F 42.2 °F 29.41 in WSW 4.0 mph 10.0 mph 91% 0.00 in
16:14 44.6 °F 42.1 °F 29.41 in West 8.0 mph 14.0 mph 91% 0.00 in
16:19 44.7 °F 42.2 °F 29.41 in WNW 2.0 mph 11.0 mph 91% 0.00 in
16:24 45.0 °F 42.5 °F 29.42 in WNW 6.0 mph 11.0 mph 91% 0.01 in
16:34 44.8 °F 42.3 °F 29.42 in West 2.0 mph 12.0 mph 91% 0.01 in
16:39 44.8 °F 42.3 °F 29.42 in West 6.0 mph 12.0 mph 91% 0.01 in
16:44 44.8 °F 42.3 °F 29.42 in WNW 6.0 mph 13.0 mph 91% 0.01 in
16:49 45.1 °F 42.9 °F 29.42 in WNW 6.0 mph 13.0 mph 92% 0.02 in
16:54 44.8 °F 42.3 °F 29.42 in WNW 6.0 mph 11.0 mph 91% 0.02 in
16:59 45.2 °F 43.0 °F 29.42 in West 9.0 mph 10.0 mph 92% 0.02 in
17:04 44.9 °F 42.4 °F 29.42 in SW 8.0 mph 13.0 mph 91% 0.02 in
17:09 45.1 °F 42.6 °F 29.42 in West 6.0 mph 11.0 mph 91% 0.02 in
17:14 45.2 °F 42.7 °F 29.43 in West 6.0 mph 12.0 mph 91% 0.02 in
17:19 44.8 °F 42.3 °F 29.43 in West 6.0 mph 13.0 mph 91% 0.02 in
17:24 44.8 °F 42.3 °F 29.43 in West 6.0 mph 13.0 mph 91% 0.02 in
17:29 45.1 °F 42.9 °F 29.43 in WNW 5.0 mph 10.0 mph 92% 0.02 in
17:34 45.1 °F 42.6 °F 29.43 in WNW 5.0 mph 11.0 mph 91% 0.02 in
17:39 44.8 °F 42.3 °F 29.43 in WNW 6.0 mph 11.0 mph 91% 0.02 in
17:44 44.7 °F 42.2 °F 29.43 in NW 7.0 mph 10.0 mph 91% 0.02 in
17:49 44.6 °F 42.1 °F 29.43 in WNW 6.0 mph 9.0 mph 91% 0.01 in
17:54 44.5 °F 41.7 °F 29.43 in WNW 6.0 mph 13.0 mph 90% 0.01 in
17:59 44.5 °F 41.7 °F 29.44 in WNW 8.0 mph 12.0 mph 90% 0.01 in
18:04 44.6 °F 41.8 °F 29.44 in WNW 7.0 mph 8.0 mph 90% 0.01 in
18:09 44.7 °F 41.9 °F 29.44 in WNW 5.0 mph 13.0 mph 90% 0.01 in
18:14 44.4 °F 41.7 °F 29.44 in WNW 6.0 mph 13.0 mph 90% 0.01 in
18:19 44.3 °F 41.6 °F 29.44 in WNW 5.0 mph 12.0 mph 90% 0.02 in
18:24 44.1 °F 41.4 °F 29.44 in WNW 5.0 mph 12.0 mph 90% 0.01 in
18:29 44.1 °F 41.6 °F 29.44 in WNW 5.0 mph 12.0 mph 91% 0.01 in
18:34 44.0 °F 41.3 °F 29.44 in WNW 5.0 mph 10.0 mph 90% 0.01 in
18:39 43.9 °F 41.2 °F 29.45 in WNW 6.0 mph 10.0 mph 90% 0.01 in
18:44 43.8 °F 41.3 °F 29.45 in WNW 2.0 mph 9.0 mph 91% 0.01 in
18:49 43.6 °F 41.1 °F 29.45 in WNW 3.0 mph 14.0 mph 91% 0.01 in
18:54 43.6 °F 41.1 °F 29.45 in NW 7.0 mph 12.0 mph 91% 0.01 in
18:59 43.5 °F 41.0 °F 29.45 in NW 4.0 mph 13.0 mph 91% 0.02 in
19:04 43.5 °F 41.0 °F 29.45 in NW 7.0 mph 9.0 mph 91% 0.02 in
19:09 43.4 °F 40.9 °F 29.45 in NW 3.0 mph 10.0 mph 91% 0.02 in
19:14 43.3 °F 40.8 °F 29.45 in WNW 5.0 mph 10.0 mph 91% 0.02 in
19:19 43.1 °F 40.7 °F 29.45 in WNW 6.0 mph 12.0 mph 91% 0.01 in
19:24 43.0 °F 40.6 °F 29.45 in WNW 6.0 mph 12.0 mph 91% 0.01 in
19:29 42.9 °F 40.5 °F 29.45 in WNW 5.0 mph 12.0 mph 91% 0.01 in
19:34 42.8 °F 40.4 °F 29.46 in NW 5.0 mph 12.0 mph 91% 0.01 in
19:39 42.7 °F 40.3 °F 29.46 in WNW 2.0 mph 9.0 mph 91% 0.01 in
19:44 42.6 °F 40.2 °F 29.46 in West 3.0 mph 11.0 mph 91% 0.01 in
19:49 42.4 °F 40.0 °F 29.46 in WNW 4.0 mph 12.0 mph 91% 0.01 in
19:54 42.4 °F 40.0 °F 29.47 in NNW 4.0 mph 11.0 mph 91% 0.01 in
19:59 42.2 °F 39.8 °F 29.47 in NW 7.0 mph 14.0 mph 91% 0.01 in
20:04 42.0 °F 39.6 °F 29.47 in WNW 4.0 mph 13.0 mph 91% 0.01 in
20:09 41.8 °F 39.4 °F 29.47 in WNW 5.0 mph 12.0 mph 91% 0.01 in
20:14 41.7 °F 39.3 °F 29.47 in WNW 6.0 mph 12.0 mph 91% 0.01 in
20:19 41.6 °F 39.4 °F 29.48 in NW 6.0 mph 11.0 mph 92% 0.01 in
20:24 41.5 °F 39.3 °F 29.48 in WNW 6.0 mph 14.0 mph 92% 0.01 in
20:29 41.4 °F 39.0 °F 29.48 in WNW 6.0 mph 14.0 mph 91% 0.02 in
20:34 41.2 °F 38.8 °F 29.48 in WNW 7.0 mph 13.0 mph 91% 0.02 in
20:39 41.2 °F 39.1 °F 29.49 in NW 7.0 mph 13.0 mph 92% 0.02 in
20:44 41.1 °F 39.0 °F 29.49 in WNW 6.0 mph 12.0 mph 92% 0.02 in
20:49 41.1 °F 39.0 °F 29.49 in NW 6.0 mph 13.0 mph 92% 0.02 in
20:54 41.1 °F 39.0 °F 29.49 in NW 6.0 mph 14.0 mph 92% 0.02 in
20:59 41.1 °F 39.0 °F 29.49 in WNW 5.0 mph 14.0 mph 92% 0.02 in
21:04 41.0 °F 38.9 °F 29.49 in NNW 4.0 mph 13.0 mph 92% 0.02 in
21:09 40.9 °F 38.8 °F 29.49 in WNW 3.0 mph 12.0 mph 92% 0.02 in
21:14 40.9 °F 38.8 °F 29.50 in West 5.0 mph 12.0 mph 92% 0.02 in
21:19 40.9 °F 38.8 °F 29.50 in NW 5.0 mph 12.0 mph 92% 0.02 in
21:24 40.9 °F 38.8 °F 29.50 in WNW 6.0 mph 12.0 mph 92% 0.03 in
21:29 40.8 °F 38.7 °F 29.50 in WNW 5.0 mph 12.0 mph 92% 0.02 in
21:34 40.7 °F 38.6 °F 29.50 in West 5.0 mph 8.0 mph 92% 0.02 in
21:39 40.7 °F 38.6 °F 29.50 in West 6.0 mph 9.0 mph 92% 0.02 in
21:44 40.7 °F 38.6 °F 29.50 in WNW 11.0 mph 11.0 mph 92% 0.02 in
21:49 40.7 °F 38.8 °F 29.50 in WNW 6.0 mph 11.0 mph 93% 0.02 in
21:54 40.7 °F 38.8 °F 29.51 in WNW 5.0 mph 11.0 mph 93% 0.02 in
21:59 40.7 °F 38.8 °F 29.51 in West 3.0 mph 8.0 mph 93% 0.01 in
22:04 40.6 °F 38.7 °F 29.51 in NW 7.0 mph 11.0 mph 93% 0.01 in
22:09 40.6 °F 38.7 °F 29.51 in West 6.0 mph 9.0 mph 93% 0.01 in
22:14 40.7 °F 38.8 °F 29.51 in WNW 4.0 mph 10.0 mph 93% 0.01 in
22:19 40.6 °F 38.7 °F 29.51 in WNW 5.0 mph 10.0 mph 93% 0.02 in
22:24 40.7 °F 38.8 °F 29.52 in WNW 5.0 mph 12.0 mph 93% 0.01 in
22:29 40.6 °F 38.7 °F 29.52 in WNW 5.0 mph 12.0 mph 93% 0.01 in
22:34 40.7 °F 38.8 °F 29.52 in WNW 5.0 mph 9.0 mph 93% 0.01 in
22:39 40.6 °F 38.7 °F 29.52 in WSW 5.0 mph 8.0 mph 93% 0.01 in
22:44 40.6 °F 38.7 °F 29.52 in NNW 7.0 mph 9.0 mph 93% 0.01 in
22:49 40.6 °F 38.7 °F 29.52 in NW 4.0 mph 9.0 mph 93% 0.01 in
22:54 40.6 °F 38.7 °F 29.52 in NW 2.0 mph 8.0 mph 93% 0.02 in
22:59 40.6 °F 38.7 °F 29.52 in NW 3.0 mph 10.0 mph 93% 0.02 in
23:04 40.6 °F 38.7 °F 29.52 in WNW 3.0 mph 8.0 mph 93% 0.02 in
23:09 40.5 °F 38.6 °F 29.52 in North 4.0 mph 8.0 mph 93% 0.02 in
23:14 40.4 °F 38.5 °F 29.52 in WNW 7.0 mph 7.0 mph 93% 0.02 in
23:19 40.4 °F 38.5 °F 29.52 in West 4.0 mph 9.0 mph 93% 0.02 in
23:24 40.5 °F 38.6 °F 29.52 in NW 4.0 mph 9.0 mph 93% 0.02 in
23:29 40.4 °F 38.5 °F 29.52 in WNW 4.0 mph 10.0 mph 93% 0.02 in
23:34 40.5 °F 38.6 °F 29.52 in NW 4.0 mph 10.0 mph 93% 0.02 in
23:39 40.5 °F 38.6 °F 29.52 in NW 3.0 mph 9.0 mph 93% 0.02 in
23:44 40.4 °F 38.5 °F 29.52 in NW 4.0 mph 9.0 mph 93% 0.03 in
23:49 40.3 °F 38.4 °F 29.52 in NW 4.0 mph 9.0 mph 93% 0.03 in
23:54 40.4 °F 38.5 °F 29.52 in WNW 3.0 mph 8.0 mph 93% 0.02 in
23:59 40.3 °F 38.4 °F 29.52 in West 4.0 mph 8.0 mph 93% 0.02 in
Buffalo, New York, USA
Compliments of Weather Underground - 2.5 mb